• Join FlightAware (Why Join?)
  • Login
  • US Flag 
07:08AM EST


 

Airport Tracker/Info


-or-


 

Live Flight TrackerFlight Track Log ✈ LIA565 ✈ 14-May-2013 ✈ TDPD / DOM - TBPB / BGI

Flight Track Log - Related Links

Times and Time Zones

All times are in EDT time to prevent confusion due to time zone crossing. See the LIA565 flight status page for this flight to view local times or setup timezone preferences in your user account.

Time Position Orientation Groundspeed Altitude Reporting Facility
EDT Latitude Longitude Course Direction KTS MPH feet Rate Location/Type
05:13PM 14.9584 -60.8651 144° Southeast  Level Estimated
05:14PM 14.8995 -60.8217 145° Southeast  Level Estimated
05:15PM 14.8406 -60.7784 145° Southeast  Level Estimated
05:16PM 14.7816 -60.7351 145° Southeast  Level Estimated
05:17PM 14.7227 -60.6918 145° Southeast  Level Estimated
05:18PM 14.6638 -60.6485 145° Southeast  Level Estimated
05:19PM 14.6048 -60.6053 145° Southeast  Level Estimated
05:20PM 14.5459 -60.5620 145° Southeast  Level Estimated
05:21PM 14.4869 -60.5188 145° Southeast  Level Estimated
05:22PM 14.4279 -60.4757 145° Southeast  Level Estimated
05:23PM 14.3690 -60.4325 145° Southeast  Level Estimated
05:24PM 14.3100 -60.3894 145° Southeast  Level Estimated
05:25PM 14.2510 -60.3463 145° Southeast  Level Estimated
05:26PM 14.1920 -60.3032 145° Southeast  Level Estimated
05:27PM 14.1330 -60.2601 145° Southeast  Level Estimated
05:28PM 14.0739 -60.2171 145° Southeast  Level Estimated
05:29PM 14.0149 -60.1741 145° Southeast  Level Estimated
05:30PM 13.9559 -60.1311 145° Southeast  Level Estimated
05:31PM 13.8968 -60.0881 145° Southeast  Level Estimated
05:32PM 13.8378 -60.0452 145° Southeast  Level Estimated
05:33PM 13.7787 -60.0022 145° Southeast  Level Estimated
05:34PM 13.7197 -59.9593 145° Southeast  Level Estimated
05:35PM 13.6606 -59.9164 145° Southeast  Level Estimated
05:36PM 13.6015 -59.8736 145° Southeast  Level Estimated
05:37PM 13.5424 -59.8307 145° Southeast  Level Estimated
05:38PM 13.4833 -59.7879 145° Southeast  Level Estimated
05:39PM 13.4242 -59.7451 145° Southeast  Level Estimated
05:40PM 13.3651 -59.7023 145° Southeast  Level Estimated
05:41PM 13.3060 -59.6596 145° Southeast  Level Estimated
05:42PM 13.2469 -59.6168 145° Southeast  Level Estimated
05:43PM 13.1878 -59.5741 145° Southeast  Level Estimated
05:44PM 13.1286 -59.5314 145° Southeast  Level Estimated
05:45PM 13.0746 -59.4925 145° Southeast  Level Estimated
05:46PM 13.0746 -59.4925 52° Northeast  Level Estimated
05:47PM 13.0746 -59.4925 52° Northeast  Level Estimated
05:48PM 13.0746 -59.4925 52° Northeast  Level Estimated
05:49PM 13.0746 -59.4925 52° Northeast  Level Estimated
05:50PM 13.0746 -59.4925 52° Northeast  Level Estimated
05:51PM 13.0746 -59.4925 52° Northeast  Level Estimated
05:52PM 13.0746 -59.4925 52° Northeast  Level Estimated
05:53PM 13.0746 -59.4925 52° Northeast  Level Estimated
05:54PM 13.0746 -59.4925 52° Northeast  Level Estimated
05:55PM 13.0746 -59.4925 52° Northeast  Level Estimated
05:56PM 13.0746 -59.4925 52° Northeast  Level Estimated
05:57PM 13.0746 -59.4925 52° Northeast  Level Estimated
05:58PM 13.0746 -59.4925 52° Northeast  Level Estimated
05:59PM 13.0746 -59.4925 52° Northeast  Level Estimated
06:00PM 13.0746 -59.4925 52° Northeast  Level Estimated
06:01PM 13.0746 -59.4925 52° Northeast  Level Estimated